sensor_id;sensor_type;location;lat;lon;timestamp;P1;durP1;ratioP1;P2;durP2;ratioP2
32216;SDS011;67098;51.140;4.088;2024-01-10T00:01:35;18.98;;;7.40;;
32216;SDS011;67098;51.140;4.088;2024-01-10T00:04:00;16.05;;;7.38;;
32216;SDS011;67098;51.140;4.088;2024-01-10T00:06:26;22.60;;;7.45;;
32216;SDS011;67098;51.140;4.088;2024-01-10T00:08:52;19.73;;;7.50;;
32216;SDS011;67098;51.140;4.088;2024-01-10T00:11:18;21.42;;;7.55;;
32216;SDS011;67098;51.140;4.088;2024-01-10T00:13:44;15.30;;;6.88;;
32216;SDS011;67098;51.140;4.088;2024-01-10T00:16:13;19.20;;;7.47;;
32216;SDS011;67098;51.140;4.088;2024-01-10T00:18:39;19.42;;;7.47;;
32216;SDS011;67098;51.140;4.088;2024-01-10T00:21:06;16.67;;;6.85;;
32216;SDS011;67098;51.140;4.088;2024-01-10T00:23:32;15.30;;;6.65;;
32216;SDS011;67098;51.140;4.088;2024-01-10T00:25:57;19.35;;;7.45;;
32216;SDS011;67098;51.140;4.088;2024-01-10T00:28:23;13.65;;;6.38;;
32216;SDS011;67098;51.140;4.088;2024-01-10T00:30:50;22.63;;;8.68;;
32216;SDS011;67098;51.140;4.088;2024-01-10T00:33:15;21.08;;;7.88;;
32216;SDS011;67098;51.140;4.088;2024-01-10T00:35:41;13.73;;;6.38;;
32216;SDS011;67098;51.140;4.088;2024-01-10T00:38:07;15.40;;;6.60;;
32216;SDS011;67098;51.140;4.088;2024-01-10T00:40:33;17.35;;;7.22;;
32216;SDS011;67098;51.140;4.088;2024-01-10T00:42:59;18.17;;;7.03;;
32216;SDS011;67098;51.140;4.088;2024-01-10T00:45:24;18.50;;;7.25;;
32216;SDS011;67098;51.140;4.088;2024-01-10T00:47:50;18.58;;;7.47;;
32216;SDS011;67098;51.140;4.088;2024-01-10T00:50:16;16.73;;;7.47;;
32216;SDS011;67098;51.140;4.088;2024-01-10T00:52:43;16.33;;;7.32;;
32216;SDS011;67098;51.140;4.088;2024-01-10T00:55:10;17.80;;;7.28;;
32216;SDS011;67098;51.140;4.088;2024-01-10T00:57:35;20.15;;;7.55;;
32216;SDS011;67098;51.140;4.088;2024-01-10T01:00:06;14.75;;;6.85;;
32216;SDS011;67098;51.140;4.088;2024-01-10T01:02:33;18.25;;;7.38;;
32216;SDS011;67098;51.140;4.088;2024-01-10T01:04:59;13.13;;;7.03;;
32216;SDS011;67098;51.140;4.088;2024-01-10T01:07:25;21.50;;;7.13;;
32216;SDS011;67098;51.140;4.088;2024-01-10T01:09:51;17.38;;;7.50;;
32216;SDS011;67098;51.140;4.088;2024-01-10T01:12:17;17.83;;;7.20;;
32216;SDS011;67098;51.140;4.088;2024-01-10T01:14:43;21.80;;;7.57;;
32216;SDS011;67098;51.140;4.088;2024-01-10T01:17:08;20.25;;;7.63;;
32216;SDS011;67098;51.140;4.088;2024-01-10T01:19:34;17.60;;;6.88;;
32216;SDS011;67098;51.140;4.088;2024-01-10T01:22:00;14.77;;;7.00;;
32216;SDS011;67098;51.140;4.088;2024-01-10T01:24:26;19.63;;;7.38;;
32216;SDS011;67098;51.140;4.088;2024-01-10T01:26:52;15.48;;;6.82;;
32216;SDS011;67098;51.140;4.088;2024-01-10T01:29:17;17.05;;;7.28;;
32216;SDS011;67098;51.140;4.088;2024-01-10T01:31:44;19.10;;;7.18;;
32216;SDS011;67098;51.140;4.088;2024-01-10T01:34:09;14.75;;;6.53;;
32216;SDS011;67098;51.140;4.088;2024-01-10T01:36:35;18.27;;;6.53;;
32216;SDS011;67098;51.140;4.088;2024-01-10T01:39:01;16.83;;;6.65;;
32216;SDS011;67098;51.140;4.088;2024-01-10T01:41:27;17.58;;;7.32;;
32216;SDS011;67098;51.140;4.088;2024-01-10T01:43:53;21.42;;;7.05;;
32216;SDS011;67098;51.140;4.088;2024-01-10T01:46:18;17.80;;;7.10;;
32216;SDS011;67098;51.140;4.088;2024-01-10T01:48:44;18.08;;;6.85;;
32216;SDS011;67098;51.140;4.088;2024-01-10T01:51:11;18.75;;;7.43;;
32216;SDS011;67098;51.140;4.088;2024-01-10T01:53:39;17.88;;;6.88;;
32216;SDS011;67098;51.140;4.088;2024-01-10T01:56:07;20.25;;;6.80;;
32216;SDS011;67098;51.140;4.088;2024-01-10T01:58:35;17.52;;;6.90;;
32216;SDS011;67098;51.140;4.088;2024-01-10T02:01:03;18.92;;;7.40;;
32216;SDS011;67098;51.140;4.088;2024-01-10T02:03:33;25.77;;;7.97;;
32216;SDS011;67098;51.140;4.088;2024-01-10T02:05:59;18.33;;;7.53;;
32216;SDS011;67098;51.140;4.088;2024-01-10T02:08:37;14.05;;;6.40;;
32216;SDS011;67098;51.140;4.088;2024-01-10T02:11:03;23.10;;;7.20;;
32216;SDS011;67098;51.140;4.088;2024-01-10T02:13:30;16.40;;;6.88;;
32216;SDS011;67098;51.140;4.088;2024-01-10T02:15:57;17.83;;;6.88;;
32216;SDS011;67098;51.140;4.088;2024-01-10T02:18:24;18.65;;;6.95;;
32216;SDS011;67098;51.140;4.088;2024-01-10T02:20:50;17.02;;;7.40;;
32216;SDS011;67098;51.140;4.088;2024-01-10T02:23:17;17.10;;;7.07;;
32216;SDS011;67098;51.140;4.088;2024-01-10T02:25:43;14.82;;;6.40;;
32216;SDS011;67098;51.140;4.088;2024-01-10T02:28:09;16.02;;;6.95;;
32216;SDS011;67098;51.140;4.088;2024-01-10T02:30:35;18.65;;;7.00;;
32216;SDS011;67098;51.140;4.088;2024-01-10T02:33:01;14.80;;;6.53;;
32216;SDS011;67098;51.140;4.088;2024-01-10T02:35:27;17.60;;;6.95;;
32216;SDS011;67098;51.140;4.088;2024-01-10T02:37:53;14.82;;;7.40;;
32216;SDS011;67098;51.140;4.088;2024-01-10T02:40:20;19.10;;;7.88;;
32216;SDS011;67098;51.140;4.088;2024-01-10T02:42:46;19.65;;;7.72;;
32216;SDS011;67098;51.140;4.088;2024-01-10T02:45:12;18.50;;;8.20;;
32216;SDS011;67098;51.140;4.088;2024-01-10T02:47:38;16.42;;;8.00;;
32216;SDS011;67098;51.140;4.088;2024-01-10T02:50:04;16.15;;;7.72;;
32216;SDS011;67098;51.140;4.088;2024-01-10T02:52:31;15.90;;;6.97;;
32216;SDS011;67098;51.140;4.088;2024-01-10T02:54:56;21.73;;;7.85;;
32216;SDS011;67098;51.140;4.088;2024-01-10T02:57:22;17.80;;;7.93;;
32216;SDS011;67098;51.140;4.088;2024-01-10T02:59:48;17.35;;;7.18;;
32216;SDS011;67098;51.140;4.088;2024-01-10T03:02:14;16.98;;;8.23;;
32216;SDS011;67098;51.140;4.088;2024-01-10T03:04:40;20.08;;;7.70;;
32216;SDS011;67098;51.140;4.088;2024-01-10T03:07:06;16.88;;;6.45;;
32216;SDS011;67098;51.140;4.088;2024-01-10T03:09:32;18.83;;;6.97;;
32216;SDS011;67098;51.140;4.088;2024-01-10T03:11:58;19.95;;;7.20;;
32216;SDS011;67098;51.140;4.088;2024-01-10T03:14:23;19.55;;;7.95;;
32216;SDS011;67098;51.140;4.088;2024-01-10T03:16:49;19.77;;;7.03;;
32216;SDS011;67098;51.140;4.088;2024-01-10T03:19:15;18.95;;;7.38;;
32216;SDS011;67098;51.140;4.088;2024-01-10T03:21:41;16.98;;;6.80;;
32216;SDS011;67098;51.140;4.088;2024-01-10T03:24:07;17.05;;;7.20;;
32216;SDS011;67098;51.140;4.088;2024-01-10T03:26:33;17.85;;;7.03;;
32216;SDS011;67098;51.140;4.088;2024-01-10T03:28:59;19.92;;;7.32;;
32216;SDS011;67098;51.140;4.088;2024-01-10T03:31:26;20.30;;;7.75;;
32216;SDS011;67098;51.140;4.088;2024-01-10T03:33:53;17.08;;;7.72;;
32216;SDS011;67098;51.140;4.088;2024-01-10T03:36:19;18.15;;;7.60;;
32216;SDS011;67098;51.140;4.088;2024-01-10T03:38:45;16.70;;;7.00;;
32216;SDS011;67098;51.140;4.088;2024-01-10T03:41:14;20.92;;;6.88;;
32216;SDS011;67098;51.140;4.088;2024-01-10T03:43:40;17.92;;;6.70;;
32216;SDS011;67098;51.140;4.088;2024-01-10T03:46:07;17.70;;;6.43;;
32216;SDS011;67098;51.140;4.088;2024-01-10T03:48:33;14.45;;;6.43;;
32216;SDS011;67098;51.140;4.088;2024-01-10T03:50:58;15.82;;;6.30;;
32216;SDS011;67098;51.140;4.088;2024-01-10T03:53:24;14.98;;;6.57;;
32216;SDS011;67098;51.140;4.088;2024-01-10T03:55:50;17.85;;;6.97;;
32216;SDS011;67098;51.140;4.088;2024-01-10T03:58:16;17.15;;;6.93;;
32216;SDS011;67098;51.140;4.088;2024-01-10T04:00:42;16.20;;;6.60;;
32216;SDS011;67098;51.140;4.088;2024-01-10T04:03:07;15.45;;;6.78;;
32216;SDS011;67098;51.140;4.088;2024-01-10T04:05:33;16.25;;;7.10;;
32216;SDS011;67098;51.140;4.088;2024-01-10T04:07:59;15.40;;;6.60;;
32216;SDS011;67098;51.140;4.088;2024-01-10T04:10:25;15.02;;;6.95;;
32216;SDS011;67098;51.140;4.088;2024-01-10T04:12:50;17.58;;;6.78;;
32216;SDS011;67098;51.140;4.088;2024-01-10T04:15:16;12.50;;;5.78;;
32216;SDS011;67098;51.140;4.088;2024-01-10T04:17:45;13.02;;;5.82;;
32216;SDS011;67098;51.140;4.088;2024-01-10T04:20:11;18.25;;;6.38;;
32216;SDS011;67098;51.140;4.088;2024-01-10T04:22:36;15.75;;;6.63;;
32216;SDS011;67098;51.140;4.088;2024-01-10T04:25:04;14.02;;;6.00;;
32216;SDS011;67098;51.140;4.088;2024-01-10T04:27:31;17.23;;;6.70;;
32216;SDS011;67098;51.140;4.088;2024-01-10T04:29:57;20.50;;;6.03;;
32216;SDS011;67098;51.140;4.088;2024-01-10T04:32:22;14.07;;;6.57;;
32216;SDS011;67098;51.140;4.088;2024-01-10T04:34:48;14.77;;;6.15;;
32216;SDS011;67098;51.140;4.088;2024-01-10T04:37:15;13.05;;;5.53;;
32216;SDS011;67098;51.140;4.088;2024-01-10T04:39:41;15.20;;;6.20;;
32216;SDS011;67098;51.140;4.088;2024-01-10T04:42:08;16.73;;;6.00;;
32216;SDS011;67098;51.140;4.088;2024-01-10T04:44:35;12.93;;;6.03;;
32216;SDS011;67098;51.140;4.088;2024-01-10T04:47:02;14.77;;;6.65;;
32216;SDS011;67098;51.140;4.088;2024-01-10T04:49:28;17.92;;;6.10;;
32216;SDS011;67098;51.140;4.088;2024-01-10T04:51:53;13.10;;;5.88;;
32216;SDS011;67098;51.140;4.088;2024-01-10T04:54:19;13.82;;;6.07;;
32216;SDS011;67098;51.140;4.088;2024-01-10T04:56:45;15.43;;;6.07;;
32216;SDS011;67098;51.140;4.088;2024-01-10T04:59:11;17.33;;;5.97;;
32216;SDS011;67098;51.140;4.088;2024-01-10T05:01:37;15.75;;;5.80;;
32216;SDS011;67098;51.140;4.088;2024-01-10T05:04:03;16.13;;;5.65;;
32216;SDS011;67098;51.140;4.088;2024-01-10T05:06:29;17.77;;;6.07;;
32216;SDS011;67098;51.140;4.088;2024-01-10T05:08:55;14.07;;;5.45;;
32216;SDS011;67098;51.140;4.088;2024-01-10T05:11:24;16.52;;;6.25;;
32216;SDS011;67098;51.140;4.088;2024-01-10T05:13:53;12.85;;;5.95;;
32216;SDS011;67098;51.140;4.088;2024-01-10T05:16:19;15.40;;;5.85;;
32216;SDS011;67098;51.140;4.088;2024-01-10T05:18:45;12.82;;;6.00;;
32216;SDS011;67098;51.140;4.088;2024-01-10T05:21:11;14.63;;;5.80;;
32216;SDS011;67098;51.140;4.088;2024-01-10T05:23:37;16.50;;;5.97;;
32216;SDS011;67098;51.140;4.088;2024-01-10T05:26:05;20.48;;;6.07;;
32216;SDS011;67098;51.140;4.088;2024-01-10T05:28:31;17.42;;;6.65;;
32216;SDS011;67098;51.140;4.088;2024-01-10T05:30:57;18.55;;;5.90;;
32216;SDS011;67098;51.140;4.088;2024-01-10T05:33:23;15.82;;;5.82;;
32216;SDS011;67098;51.140;4.088;2024-01-10T05:35:49;13.70;;;6.70;;
32216;SDS011;67098;51.140;4.088;2024-01-10T05:38:15;14.85;;;6.53;;
32216;SDS011;67098;51.140;4.088;2024-01-10T05:40:41;14.50;;;5.47;;
32216;SDS011;67098;51.140;4.088;2024-01-10T05:43:07;13.70;;;5.82;;
32216;SDS011;67098;51.140;4.088;2024-01-10T05:45:32;14.27;;;5.93;;
32216;SDS011;67098;51.140;4.088;2024-01-10T05:47:58;14.15;;;6.00;;
32216;SDS011;67098;51.140;4.088;2024-01-10T05:50:24;14.82;;;6.18;;
32216;SDS011;67098;51.140;4.088;2024-01-10T05:52:50;17.48;;;6.43;;
32216;SDS011;67098;51.140;4.088;2024-01-10T05:55:16;11.82;;;5.53;;
32216;SDS011;67098;51.140;4.088;2024-01-10T05:57:41;13.60;;;5.82;;
32216;SDS011;67098;51.140;4.088;2024-01-10T06:00:07;11.80;;;5.72;;
32216;SDS011;67098;51.140;4.088;2024-01-10T06:02:36;15.27;;;5.85;;
32216;SDS011;67098;51.140;4.088;2024-01-10T06:05:05;16.05;;;6.00;;
32216;SDS011;67098;51.140;4.088;2024-01-10T06:07:31;16.50;;;5.72;;
32216;SDS011;67098;51.140;4.088;2024-01-10T06:09:57;14.70;;;5.82;;
32216;SDS011;67098;51.140;4.088;2024-01-10T06:12:23;16.88;;;6.00;;
32216;SDS011;67098;51.140;4.088;2024-01-10T06:14:50;12.43;;;5.90;;
32216;SDS011;67098;51.140;4.088;2024-01-10T06:17:16;16.55;;;5.78;;
32216;SDS011;67098;51.140;4.088;2024-01-10T06:19:41;15.05;;;6.25;;
32216;SDS011;67098;51.140;4.088;2024-01-10T06:22:07;18.65;;;6.03;;
32216;SDS011;67098;51.140;4.088;2024-01-10T06:24:33;14.40;;;6.63;;
32216;SDS011;67098;51.140;4.088;2024-01-10T06:26:59;18.92;;;6.80;;
32216;SDS011;67098;51.140;4.088;2024-01-10T06:29:25;17.73;;;7.25;;
32216;SDS011;67098;51.140;4.088;2024-01-10T06:31:50;28.30;;;9.77;;
32216;SDS011;67098;51.140;4.088;2024-01-10T06:34:16;20.90;;;8.90;;
32216;SDS011;67098;51.140;4.088;2024-01-10T06:36:43;21.98;;;8.10;;
32216;SDS011;67098;51.140;4.088;2024-01-10T06:39:11;14.60;;;6.53;;
32216;SDS011;67098;51.140;4.088;2024-01-10T06:41:46;15.95;;;6.75;;
32216;SDS011;67098;51.140;4.088;2024-01-10T06:44:12;16.90;;;7.25;;
32216;SDS011;67098;51.140;4.088;2024-01-10T06:46:38;22.05;;;7.40;;
32216;SDS011;67098;51.140;4.088;2024-01-10T06:49:04;17.40;;;6.75;;
32216;SDS011;67098;51.140;4.088;2024-01-10T06:51:30;17.75;;;7.05;;
32216;SDS011;67098;51.140;4.088;2024-01-10T06:53:56;20.60;;;7.72;;
32216;SDS011;67098;51.140;4.088;2024-01-10T06:56:28;19.65;;;7.28;;
32216;SDS011;67098;51.140;4.088;2024-01-10T06:58:55;18.70;;;7.85;;
32216;SDS011;67098;51.140;4.088;2024-01-10T07:01:21;17.15;;;6.97;;
32216;SDS011;67098;51.140;4.088;2024-01-10T07:03:50;19.17;;;8.07;;
32216;SDS011;67098;51.140;4.088;2024-01-10T07:06:17;13.88;;;6.68;;
32216;SDS011;67098;51.140;4.088;2024-01-10T07:08:43;20.85;;;7.85;;
32216;SDS011;67098;51.140;4.088;2024-01-10T07:11:12;14.10;;;7.25;;
32216;SDS011;67098;51.140;4.088;2024-01-10T07:13:38;17.50;;;7.57;;
32216;SDS011;67098;51.140;4.088;2024-01-10T07:16:04;21.17;;;7.38;;
32216;SDS011;67098;51.140;4.088;2024-01-10T07:18:30;19.92;;;7.10;;
32216;SDS011;67098;51.140;4.088;2024-01-10T07:20:56;16.70;;;6.85;;
32216;SDS011;67098;51.140;4.088;2024-01-10T07:23:22;18.80;;;7.55;;
32216;SDS011;67098;51.140;4.088;2024-01-10T07:25:50;16.77;;;7.53;;
32216;SDS011;67098;51.140;4.088;2024-01-10T07:28:17;19.55;;;7.85;;
32216;SDS011;67098;51.140;4.088;2024-01-10T07:30:43;18.42;;;6.97;;
32216;SDS011;67098;51.140;4.088;2024-01-10T07:33:10;18.63;;;7.35;;
32216;SDS011;67098;51.140;4.088;2024-01-10T07:35:36;18.77;;;7.22;;
32216;SDS011;67098;51.140;4.088;2024-01-10T07:38:03;20.73;;;7.45;;
32216;SDS011;67098;51.140;4.088;2024-01-10T07:40:32;20.25;;;7.00;;
32216;SDS011;67098;51.140;4.088;2024-01-10T07:42:58;16.42;;;6.63;;
32216;SDS011;67098;51.140;4.088;2024-01-10T07:45:24;15.80;;;6.93;;
32216;SDS011;67098;51.140;4.088;2024-01-10T07:47:50;25.65;;;7.70;;
32216;SDS011;67098;51.140;4.088;2024-01-10T07:50:16;15.55;;;6.82;;
32216;SDS011;67098;51.140;4.088;2024-01-10T07:52:42;20.52;;;8.27;;
32216;SDS011;67098;51.140;4.088;2024-01-10T07:55:09;19.42;;;7.57;;
32216;SDS011;67098;51.140;4.088;2024-01-10T07:57:35;19.60;;;7.45;;
32216;SDS011;67098;51.140;4.088;2024-01-10T08:00:02;21.55;;;6.95;;
32216;SDS011;67098;51.140;4.088;2024-01-10T08:02:29;16.25;;;6.85;;
32216;SDS011;67098;51.140;4.088;2024-01-10T08:04:59;19.35;;;7.20;;
32216;SDS011;67098;51.140;4.088;2024-01-10T08:07:33;19.58;;;7.55;;
32216;SDS011;67098;51.140;4.088;2024-01-10T08:10:02;15.23;;;7.55;;
32216;SDS011;67098;51.140;4.088;2024-01-10T08:12:38;17.52;;;7.45;;
32216;SDS011;67098;51.140;4.088;2024-01-10T08:15:04;17.38;;;8.10;;
32216;SDS011;67098;51.140;4.088;2024-01-10T08:17:31;19.35;;;7.57;;
32216;SDS011;67098;51.140;4.088;2024-01-10T08:19:58;29.23;;;7.90;;
32216;SDS011;67098;51.140;4.088;2024-01-10T08:22:25;21.52;;;7.88;;
32216;SDS011;67098;51.140;4.088;2024-01-10T08:24:50;19.63;;;7.82;;
32216;SDS011;67098;51.140;4.088;2024-01-10T08:27:17;31.45;;;8.55;;
32216;SDS011;67098;51.140;4.088;2024-01-10T08:29:43;20.67;;;6.80;;
32216;SDS011;67098;51.140;4.088;2024-01-10T08:32:10;17.48;;;7.82;;
32216;SDS011;67098;51.140;4.088;2024-01-10T08:34:36;22.58;;;8.50;;
32216;SDS011;67098;51.140;4.088;2024-01-10T08:37:02;22.67;;;8.05;;
32216;SDS011;67098;51.140;4.088;2024-01-10T08:39:28;19.20;;;8.25;;
32216;SDS011;67098;51.140;4.088;2024-01-10T08:41:55;21.90;;;7.70;;
32216;SDS011;67098;51.140;4.088;2024-01-10T08:44:22;21.77;;;8.73;;
32216;SDS011;67098;51.140;4.088;2024-01-10T08:46:48;18.75;;;7.90;;
32216;SDS011;67098;51.140;4.088;2024-01-10T08:49:16;21.40;;;8.38;;
32216;SDS011;67098;51.140;4.088;2024-01-10T08:51:42;23.33;;;8.50;;
32216;SDS011;67098;51.140;4.088;2024-01-10T08:54:08;19.85;;;8.15;;
32216;SDS011;67098;51.140;4.088;2024-01-10T08:56:34;23.48;;;8.73;;
32216;SDS011;67098;51.140;4.088;2024-01-10T08:59:00;24.88;;;8.82;;
32216;SDS011;67098;51.140;4.088;2024-01-10T09:01:26;20.25;;;8.80;;
32216;SDS011;67098;51.140;4.088;2024-01-10T09:03:52;25.10;;;8.18;;
32216;SDS011;67098;51.140;4.088;2024-01-10T09:06:17;22.23;;;8.13;;
32216;SDS011;67098;51.140;4.088;2024-01-10T09:08:43;24.85;;;8.32;;
32216;SDS011;67098;51.140;4.088;2024-01-10T09:11:09;21.42;;;8.63;;
32216;SDS011;67098;51.140;4.088;2024-01-10T09:13:35;20.80;;;8.20;;
32216;SDS011;67098;51.140;4.088;2024-01-10T09:16:03;21.23;;;8.20;;
32216;SDS011;67098;51.140;4.088;2024-01-10T09:18:29;23.67;;;7.53;;
32216;SDS011;67098;51.140;4.088;2024-01-10T09:20:55;23.23;;;8.55;;
32216;SDS011;67098;51.140;4.088;2024-01-10T09:23:21;20.15;;;9.00;;
32216;SDS011;67098;51.140;4.088;2024-01-10T09:25:47;24.27;;;8.77;;
32216;SDS011;67098;51.140;4.088;2024-01-10T09:28:13;19.73;;;8.45;;
32216;SDS011;67098;51.140;4.088;2024-01-10T09:30:39;19.30;;;8.02;;
32216;SDS011;67098;51.140;4.088;2024-01-10T09:33:04;22.95;;;8.77;;
32216;SDS011;67098;51.140;4.088;2024-01-10T09:35:30;21.50;;;8.60;;
32216;SDS011;67098;51.140;4.088;2024-01-10T09:37:56;21.52;;;8.73;;
32216;SDS011;67098;51.140;4.088;2024-01-10T09:40:21;21.60;;;8.55;;
32216;SDS011;67098;51.140;4.088;2024-01-10T09:42:51;24.15;;;9.38;;
32216;SDS011;67098;51.140;4.088;2024-01-10T09:45:17;23.88;;;9.00;;
32216;SDS011;67098;51.140;4.088;2024-01-10T09:47:46;19.67;;;8.82;;
32216;SDS011;67098;51.140;4.088;2024-01-10T09:50:14;22.90;;;9.25;;
32216;SDS011;67098;51.140;4.088;2024-01-10T09:52:41;20.10;;;8.70;;
32216;SDS011;67098;51.140;4.088;2024-01-10T09:55:34;28.25;;;9.45;;
32216;SDS011;67098;51.140;4.088;2024-01-10T09:58:04;23.80;;;9.27;;
32216;SDS011;67098;51.140;4.088;2024-01-10T10:00:31;20.92;;;8.68;;
32216;SDS011;67098;51.140;4.088;2024-01-10T10:02:59;20.42;;;8.25;;
32216;SDS011;67098;51.140;4.088;2024-01-10T10:05:27;22.83;;;9.75;;
32216;SDS011;67098;51.140;4.088;2024-01-10T10:07:53;38.22;;;12.60;;
32216;SDS011;67098;51.140;4.088;2024-01-10T10:10:19;24.00;;;8.55;;
32216;SDS011;67098;51.140;4.088;2024-01-10T10:12:48;25.33;;;9.45;;
32216;SDS011;67098;51.140;4.088;2024-01-10T10:15:17;28.90;;;9.10;;
32216;SDS011;67098;51.140;4.088;2024-01-10T10:17:45;26.70;;;9.10;;
32216;SDS011;67098;51.140;4.088;2024-01-10T10:20:26;20.40;;;8.88;;
32216;SDS011;67098;51.140;4.088;2024-01-10T10:25:29;20.80;;;9.25;;
32216;SDS011;67098;51.140;4.088;2024-01-10T10:27:59;25.17;;;9.07;;
32216;SDS011;67098;51.140;4.088;2024-01-10T10:30:27;22.27;;;9.32;;
32216;SDS011;67098;51.140;4.088;2024-01-10T10:32:54;23.27;;;8.52;;
32216;SDS011;67098;51.140;4.088;2024-01-10T10:35:20;26.55;;;9.30;;
32216;SDS011;67098;51.140;4.088;2024-01-10T10:37:50;23.95;;;9.88;;
32216;SDS011;67098;51.140;4.088;2024-01-10T10:40:17;25.05;;;9.43;;
32216;SDS011;67098;51.140;4.088;2024-01-10T10:42:44;23.75;;;9.88;;
32216;SDS011;67098;51.140;4.088;2024-01-10T10:45:17;25.33;;;8.93;;
32216;SDS011;67098;51.140;4.088;2024-01-10T10:47:45;25.23;;;10.20;;
32216;SDS011;67098;51.140;4.088;2024-01-10T10:50:19;21.85;;;9.57;;
32216;SDS011;67098;51.140;4.088;2024-01-10T10:52:48;30.85;;;9.63;;
32216;SDS011;67098;51.140;4.088;2024-01-10T10:55:16;18.92;;;8.95;;
32216;SDS011;67098;51.140;4.088;2024-01-10T10:57:44;27.15;;;9.75;;
32216;SDS011;67098;51.140;4.088;2024-01-10T11:00:13;23.75;;;9.80;;
32216;SDS011;67098;51.140;4.088;2024-01-10T11:02:43;26.92;;;10.48;;
32216;SDS011;67098;51.140;4.088;2024-01-10T11:05:10;23.33;;;9.52;;
32216;SDS011;67098;51.140;4.088;2024-01-10T11:07:40;22.38;;;9.60;;
32216;SDS011;67098;51.140;4.088;2024-01-10T11:10:11;22.80;;;9.95;;
32216;SDS011;67098;51.140;4.088;2024-01-10T11:15:40;33.95;;;10.20;;
32216;SDS011;67098;51.140;4.088;2024-01-10T11:21:16;23.98;;;9.60;;
32216;SDS011;67098;51.140;4.088;2024-01-10T11:23:46;20.55;;;9.63;;
32216;SDS011;67098;51.140;4.088;2024-01-10T11:26:15;28.98;;;10.50;;
32216;SDS011;67098;51.140;4.088;2024-01-10T11:28:41;22.25;;;9.23;;
32216;SDS011;67098;51.140;4.088;2024-01-10T11:31:07;23.70;;;10.02;;
32216;SDS011;67098;51.140;4.088;2024-01-10T11:33:34;28.40;;;9.95;;
32216;SDS011;67098;51.140;4.088;2024-01-10T11:36:15;25.65;;;9.82;;
32216;SDS011;67098;51.140;4.088;2024-01-10T11:38:43;25.08;;;9.70;;
32216;SDS011;67098;51.140;4.088;2024-01-10T11:41:15;23.77;;;9.77;;
32216;SDS011;67098;51.140;4.088;2024-01-10T11:46:47;23.92;;;10.07;;
32216;SDS011;67098;51.140;4.088;2024-01-10T11:49:17;23.90;;;9.75;;
32216;SDS011;67098;51.140;4.088;2024-01-10T11:54:10;23.80;;;9.75;;
32216;SDS011;67098;51.140;4.088;2024-01-10T11:56:42;23.10;;;10.52;;
32216;SDS011;67098;51.140;4.088;2024-01-10T11:59:10;30.05;;;9.38;;
32216;SDS011;67098;51.140;4.088;2024-01-10T12:01:38;21.08;;;9.60;;
32216;SDS011;67098;51.140;4.088;2024-01-10T12:04:04;26.42;;;11.02;;
32216;SDS011;67098;51.140;4.088;2024-01-10T12:06:31;24.35;;;9.82;;
32216;SDS011;67098;51.140;4.088;2024-01-10T12:08:59;22.58;;;10.30;;
32216;SDS011;67098;51.140;4.088;2024-01-10T12:11:29;22.85;;;9.75;;
32216;SDS011;67098;51.140;4.088;2024-01-10T12:13:55;21.92;;;9.70;;
32216;SDS011;67098;51.140;4.088;2024-01-10T12:16:23;23.73;;;9.98;;
32216;SDS011;67098;51.140;4.088;2024-01-10T12:18:48;23.30;;;9.80;;
32216;SDS011;67098;51.140;4.088;2024-01-10T12:21:16;23.98;;;9.88;;
32216;SDS011;67098;51.140;4.088;2024-01-10T12:23:43;25.60;;;10.52;;
32216;SDS011;67098;51.140;4.088;2024-01-10T12:26:10;27.33;;;10.48;;
32216;SDS011;67098;51.140;4.088;2024-01-10T12:28:39;25.05;;;9.80;;
32216;SDS011;67098;51.140;4.088;2024-01-10T12:31:05;24.17;;;9.60;;
32216;SDS011;67098;51.140;4.088;2024-01-10T12:33:37;19.83;;;8.85;;
32216;SDS011;67098;51.140;4.088;2024-01-10T12:36:05;27.45;;;9.90;;
32216;SDS011;67098;51.140;4.088;2024-01-10T12:38:32;25.35;;;10.18;;
32216;SDS011;67098;51.140;4.088;2024-01-10T12:40:58;26.23;;;10.32;;
32216;SDS011;67098;51.140;4.088;2024-01-10T12:43:25;24.20;;;10.23;;
32216;SDS011;67098;51.140;4.088;2024-01-10T12:46:04;28.00;;;10.48;;
32216;SDS011;67098;51.140;4.088;2024-01-10T12:48:40;25.60;;;10.50;;
32216;SDS011;67098;51.140;4.088;2024-01-10T12:51:07;24.65;;;9.90;;
32216;SDS011;67098;51.140;4.088;2024-01-10T12:53:37;26.08;;;10.25;;
32216;SDS011;67098;51.140;4.088;2024-01-10T12:56:03;27.88;;;10.25;;
32216;SDS011;67098;51.140;4.088;2024-01-10T12:58:30;25.20;;;9.50;;
32216;SDS011;67098;51.140;4.088;2024-01-10T13:00:57;26.27;;;10.48;;
32216;SDS011;67098;51.140;4.088;2024-01-10T13:03:23;23.73;;;10.30;;
32216;SDS011;67098;51.140;4.088;2024-01-10T13:05:52;31.20;;;10.90;;
32216;SDS011;67098;51.140;4.088;2024-01-10T13:08:18;23.00;;;10.13;;
32216;SDS011;67098;51.140;4.088;2024-01-10T13:10:45;33.40;;;10.18;;
32216;SDS011;67098;51.140;4.088;2024-01-10T13:13:12;25.15;;;10.70;;
32216;SDS011;67098;51.140;4.088;2024-01-10T13:15:38;24.35;;;10.43;;
32216;SDS011;67098;51.140;4.088;2024-01-10T13:18:04;19.70;;;9.63;;
32216;SDS011;67098;51.140;4.088;2024-01-10T13:20:30;26.42;;;11.05;;
32216;SDS011;67098;51.140;4.088;2024-01-10T13:22:55;26.90;;;10.77;;
32216;SDS011;67098;51.140;4.088;2024-01-10T13:25:21;25.25;;;10.20;;
32216;SDS011;67098;51.140;4.088;2024-01-10T13:27:49;22.95;;;10.20;;
32216;SDS011;67098;51.140;4.088;2024-01-10T13:30:18;33.03;;;10.07;;
32216;SDS011;67098;51.140;4.088;2024-01-10T13:32:48;24.27;;;10.57;;
32216;SDS011;67098;51.140;4.088;2024-01-10T13:35:14;24.42;;;9.88;;
32216;SDS011;67098;51.140;4.088;2024-01-10T13:37:41;33.92;;;10.88;;
32216;SDS011;67098;51.140;4.088;2024-01-10T13:40:08;24.58;;;9.90;;
32216;SDS011;67098;51.140;4.088;2024-01-10T13:42:35;24.73;;;11.00;;
32216;SDS011;67098;51.140;4.088;2024-01-10T13:45:04;25.73;;;10.27;;
32216;SDS011;67098;51.140;4.088;2024-01-10T13:50:01;33.22;;;12.32;;
32216;SDS011;67098;51.140;4.088;2024-01-10T13:52:28;25.13;;;10.68;;
32216;SDS011;67098;51.140;4.088;2024-01-10T13:54:54;25.75;;;10.82;;
32216;SDS011;67098;51.140;4.088;2024-01-10T13:57:21;27.17;;;10.82;;
32216;SDS011;67098;51.140;4.088;2024-01-10T13:59:47;25.83;;;11.43;;
32216;SDS011;67098;51.140;4.088;2024-01-10T14:02:13;29.98;;;11.40;;
32216;SDS011;67098;51.140;4.088;2024-01-10T14:04:39;26.60;;;11.20;;
32216;SDS011;67098;51.140;4.088;2024-01-10T14:07:05;30.15;;;11.23;;
32216;SDS011;67098;51.140;4.088;2024-01-10T14:09:31;26.15;;;11.07;;
32216;SDS011;67098;51.140;4.088;2024-01-10T14:11:57;27.73;;;11.32;;
32216;SDS011;67098;51.140;4.088;2024-01-10T14:14:22;31.83;;;10.75;;
32216;SDS011;67098;51.140;4.088;2024-01-10T14:16:48;23.42;;;11.40;;
32216;SDS011;67098;51.140;4.088;2024-01-10T14:19:15;29.88;;;11.07;;
32216;SDS011;67098;51.140;4.088;2024-01-10T14:21:43;24.70;;;11.30;;
32216;SDS011;67098;51.140;4.088;2024-01-10T14:24:10;27.25;;;12.68;;
32216;SDS011;67098;51.140;4.088;2024-01-10T14:26:36;26.73;;;10.55;;
32216;SDS011;67098;51.140;4.088;2024-01-10T14:29:02;27.63;;;11.75;;
32216;SDS011;67098;51.140;4.088;2024-01-10T14:31:28;27.00;;;11.73;;
32216;SDS011;67098;51.140;4.088;2024-01-10T14:33:54;24.20;;;10.68;;
32216;SDS011;67098;51.140;4.088;2024-01-10T14:36:21;30.17;;;10.93;;
32216;SDS011;67098;51.140;4.088;2024-01-10T14:38:47;27.25;;;11.23;;
32216;SDS011;67098;51.140;4.088;2024-01-10T14:41:13;26.85;;;11.65;;
32216;SDS011;67098;51.140;4.088;2024-01-10T14:43:39;27.92;;;11.93;;
32216;SDS011;67098;51.140;4.088;2024-01-10T14:46:05;28.40;;;11.45;;
32216;SDS011;67098;51.140;4.088;2024-01-10T14:48:31;25.15;;;11.45;;